sensor_id;sensor_type;location;lat;lon;timestamp;temperature;humidity
36716;DHT22;22699;51.034;3.730;2023-05-16T00:00:23;10.40;99.90
36716;DHT22;22699;51.034;3.730;2023-05-16T00:02:53;10.40;99.90
36716;DHT22;22699;51.034;3.730;2023-05-16T00:05:18;10.50;99.90
36716;DHT22;22699;51.034;3.730;2023-05-16T00:07:45;10.40;99.90
36716;DHT22;22699;51.034;3.730;2023-05-16T00:10:12;10.40;99.90
36716;DHT22;22699;51.034;3.730;2023-05-16T00:12:39;10.40;99.90
36716;DHT22;22699;51.034;3.730;2023-05-16T00:15:06;10.30;99.90
36716;DHT22;22699;51.034;3.730;2023-05-16T00:17:33;10.20;99.90
36716;DHT22;22699;51.034;3.730;2023-05-16T00:20:00;10.30;99.90
36716;DHT22;22699;51.034;3.730;2023-05-16T00:22:27;10.30;99.90
36716;DHT22;22699;51.034;3.730;2023-05-16T00:24:52;10.30;99.90
36716;DHT22;22699;51.034;3.730;2023-05-16T00:27:18;10.30;99.90
36716;DHT22;22699;51.034;3.730;2023-05-16T00:29:44;10.30;99.90
36716;DHT22;22699;51.034;3.730;2023-05-16T00:32:10;10.20;99.90
36716;DHT22;22699;51.034;3.730;2023-05-16T00:34:36;10.20;99.90
36716;DHT22;22699;51.034;3.730;2023-05-16T00:37:01;10.20;99.90
36716;DHT22;22699;51.034;3.730;2023-05-16T00:39:27;10.30;99.90
36716;DHT22;22699;51.034;3.730;2023-05-16T00:41:53;10.50;99.90
36716;DHT22;22699;51.034;3.730;2023-05-16T00:44:19;10.10;99.90
36716;DHT22;22699;51.034;3.730;2023-05-16T00:46:45;10.20;99.90
36716;DHT22;22699;51.034;3.730;2023-05-16T00:49:10;10.20;99.90
36716;DHT22;22699;51.034;3.730;2023-05-16T00:51:38;10.20;99.90
36716;DHT22;22699;51.034;3.730;2023-05-16T00:54:04;10.40;99.90
36716;DHT22;22699;51.034;3.730;2023-05-16T00:56:30;10.20;99.90
36716;DHT22;22699;51.034;3.730;2023-05-16T00:58:56;10.20;99.90
36716;DHT22;22699;51.034;3.730;2023-05-16T01:01:24;10.10;99.90
36716;DHT22;22699;51.034;3.730;2023-05-16T01:03:51;10.10;99.90
36716;DHT22;22699;51.034;3.730;2023-05-16T01:06:18;10.10;99.90
36716;DHT22;22699;51.034;3.730;2023-05-16T01:08:44;10.10;99.90
36716;DHT22;22699;51.034;3.730;2023-05-16T01:20:02;10.00;99.90
36716;DHT22;22699;51.034;3.730;2023-05-16T01:27:43;9.90;99.90
36716;DHT22;22699;51.034;3.730;2023-05-16T01:30:16;9.90;99.90
36716;DHT22;22699;51.034;3.730;2023-05-16T01:32:42;9.90;99.90
36716;DHT22;22699;51.034;3.730;2023-05-16T01:35:12;9.90;99.90
36716;DHT22;22699;51.034;3.730;2023-05-16T01:37:48;9.90;99.90
36716;DHT22;22699;51.034;3.730;2023-05-16T01:42:45;9.90;99.90
36716;DHT22;22699;51.034;3.730;2023-05-16T01:45:28;9.80;99.90
36716;DHT22;22699;51.034;3.730;2023-05-16T01:48:09;9.80;99.90
36716;DHT22;22699;51.034;3.730;2023-05-16T01:50:41;10.00;99.90
36716;DHT22;22699;51.034;3.730;2023-05-16T01:53:13;10.00;99.90
36716;DHT22;22699;51.034;3.730;2023-05-16T01:55:44;9.90;99.90
36716;DHT22;22699;51.034;3.730;2023-05-16T01:58:12;9.90;99.90
36716;DHT22;22699;51.034;3.730;2023-05-16T02:00:39;10.00;99.90
36716;DHT22;22699;51.034;3.730;2023-05-16T02:03:05;10.00;99.90
36716;DHT22;22699;51.034;3.730;2023-05-16T02:05:31;10.00;99.90
36716;DHT22;22699;51.034;3.730;2023-05-16T02:07:58;9.90;99.90
36716;DHT22;22699;51.034;3.730;2023-05-16T02:10:27;9.90;99.90
36716;DHT22;22699;51.034;3.730;2023-05-16T02:12:53;9.90;99.90
36716;DHT22;22699;51.034;3.730;2023-05-16T02:15:18;9.80;99.90
36716;DHT22;22699;51.034;3.730;2023-05-16T02:17:45;9.90;99.90
36716;DHT22;22699;51.034;3.730;2023-05-16T02:20:13;9.90;99.90
36716;DHT22;22699;51.034;3.730;2023-05-16T02:22:39;9.90;99.90
36716;DHT22;22699;51.034;3.730;2023-05-16T02:25:05;9.80;99.90
36716;DHT22;22699;51.034;3.730;2023-05-16T02:27:31;9.80;99.90
36716;DHT22;22699;51.034;3.730;2023-05-16T02:29:57;9.80;99.90
36716;DHT22;22699;51.034;3.730;2023-05-16T02:32:23;9.80;99.90
36716;DHT22;22699;51.034;3.730;2023-05-16T02:34:49;9.70;99.90
36716;DHT22;22699;51.034;3.730;2023-05-16T02:37:14;9.70;99.90
36716;DHT22;22699;51.034;3.730;2023-05-16T02:39:40;9.90;99.90
36716;DHT22;22699;51.034;3.730;2023-05-16T02:42:06;9.80;99.90
36716;DHT22;22699;51.034;3.730;2023-05-16T02:44:33;9.70;99.90
36716;DHT22;22699;51.034;3.730;2023-05-16T02:46:59;9.70;99.90
36716;DHT22;22699;51.034;3.730;2023-05-16T02:49:24;9.60;99.90
36716;DHT22;22699;51.034;3.730;2023-05-16T02:51:51;9.70;99.90
36716;DHT22;22699;51.034;3.730;2023-05-16T02:54:17;9.70;99.90
36716;DHT22;22699;51.034;3.730;2023-05-16T02:56:43;9.70;99.90
36716;DHT22;22699;51.034;3.730;2023-05-16T02:59:10;9.70;99.90
36716;DHT22;22699;51.034;3.730;2023-05-16T03:01:36;9.70;99.90
36716;DHT22;22699;51.034;3.730;2023-05-16T03:04:02;9.70;99.90
36716;DHT22;22699;51.034;3.730;2023-05-16T03:06:27;9.70;99.90
36716;DHT22;22699;51.034;3.730;2023-05-16T03:08:55;9.90;99.90
36716;DHT22;22699;51.034;3.730;2023-05-16T03:11:21;9.70;99.90
36716;DHT22;22699;51.034;3.730;2023-05-16T03:13:49;9.80;99.90
36716;DHT22;22699;51.034;3.730;2023-05-16T03:16:15;9.60;99.90
36716;DHT22;22699;51.034;3.730;2023-05-16T03:18:41;9.60;99.90
36716;DHT22;22699;51.034;3.730;2023-05-16T03:21:07;9.60;99.90
36716;DHT22;22699;51.034;3.730;2023-05-16T03:23:33;9.70;99.90
36716;DHT22;22699;51.034;3.730;2023-05-16T03:25:58;9.50;99.90
36716;DHT22;22699;51.034;3.730;2023-05-16T03:28:24;9.60;99.90
36716;DHT22;22699;51.034;3.730;2023-05-16T03:30:50;9.60;99.90
36716;DHT22;22699;51.034;3.730;2023-05-16T03:33:15;9.60;99.90
36716;DHT22;22699;51.034;3.730;2023-05-16T03:35:42;9.70;99.90
36716;DHT22;22699;51.034;3.730;2023-05-16T03:38:09;9.60;99.90
36716;DHT22;22699;51.034;3.730;2023-05-16T03:40:34;9.50;99.90
36716;DHT22;22699;51.034;3.730;2023-05-16T03:43:00;9.50;99.90
36716;DHT22;22699;51.034;3.730;2023-05-16T03:45:26;9.80;99.90
36716;DHT22;22699;51.034;3.730;2023-05-16T03:47:52;9.60;99.90
36716;DHT22;22699;51.034;3.730;2023-05-16T03:50:17;9.50;99.90
36716;DHT22;22699;51.034;3.730;2023-05-16T03:52:43;9.50;99.90
36716;DHT22;22699;51.034;3.730;2023-05-16T03:55:09;9.50;99.90
36716;DHT22;22699;51.034;3.730;2023-05-16T03:57:36;9.50;99.90
36716;DHT22;22699;51.034;3.730;2023-05-16T04:00:03;9.60;99.90
36716;DHT22;22699;51.034;3.730;2023-05-16T04:02:32;9.60;99.90
36716;DHT22;22699;51.034;3.730;2023-05-16T04:04:58;9.60;99.90
36716;DHT22;22699;51.034;3.730;2023-05-16T04:07:23;9.50;99.90
36716;DHT22;22699;51.034;3.730;2023-05-16T04:09:50;9.60;99.90
36716;DHT22;22699;51.034;3.730;2023-05-16T04:12:16;9.50;99.90
36716;DHT22;22699;51.034;3.730;2023-05-16T04:14:42;9.40;99.90
36716;DHT22;22699;51.034;3.730;2023-05-16T04:17:08;9.50;99.90
36716;DHT22;22699;51.034;3.730;2023-05-16T04:19:33;9.50;99.90
36716;DHT22;22699;51.034;3.730;2023-05-16T04:21:59;9.60;99.90
36716;DHT22;22699;51.034;3.730;2023-05-16T04:24:25;9.60;99.90
36716;DHT22;22699;51.034;3.730;2023-05-16T04:26:53;9.60;99.90
36716;DHT22;22699;51.034;3.730;2023-05-16T04:29:20;9.70;99.90
36716;DHT22;22699;51.034;3.730;2023-05-16T04:31:46;9.80;99.90
36716;DHT22;22699;51.034;3.730;2023-05-16T04:34:13;9.70;99.90
36716;DHT22;22699;51.034;3.730;2023-05-16T04:36:40;9.60;99.90
36716;DHT22;22699;51.034;3.730;2023-05-16T04:39:06;9.90;99.90
36716;DHT22;22699;51.034;3.730;2023-05-16T04:41:32;9.70;99.90
36716;DHT22;22699;51.034;3.730;2023-05-16T04:44:02;9.80;99.90
36716;DHT22;22699;51.034;3.730;2023-05-16T04:46:30;9.80;99.90
36716;DHT22;22699;51.034;3.730;2023-05-16T04:48:56;9.80;99.90
36716;DHT22;22699;51.034;3.730;2023-05-16T04:51:22;9.90;99.90
36716;DHT22;22699;51.034;3.730;2023-05-16T04:53:47;10.00;99.90
36716;DHT22;22699;51.034;3.730;2023-05-16T04:56:13;10.00;99.90
36716;DHT22;22699;51.034;3.730;2023-05-16T04:58:39;10.00;99.90
36716;DHT22;22699;51.034;3.730;2023-05-16T05:01:04;10.00;99.90
36716;DHT22;22699;51.034;3.730;2023-05-16T05:03:30;10.30;99.90
36716;DHT22;22699;51.034;3.730;2023-05-16T05:05:56;10.10;99.90
36716;DHT22;22699;51.034;3.730;2023-05-16T05:08:22;10.10;99.90
36716;DHT22;22699;51.034;3.730;2023-05-16T05:10:47;10.20;99.90
36716;DHT22;22699;51.034;3.730;2023-05-16T05:13:13;10.20;99.90
36716;DHT22;22699;51.034;3.730;2023-05-16T05:15:39;10.10;99.90
36716;DHT22;22699;51.034;3.730;2023-05-16T05:18:05;10.10;99.90
36716;DHT22;22699;51.034;3.730;2023-05-16T05:20:30;10.20;99.90
36716;DHT22;22699;51.034;3.730;2023-05-16T05:22:56;10.30;99.90
36716;DHT22;22699;51.034;3.730;2023-05-16T05:25:22;10.30;99.90
36716;DHT22;22699;51.034;3.730;2023-05-16T05:27:49;10.40;99.90
36716;DHT22;22699;51.034;3.730;2023-05-16T05:30:14;10.30;99.90
36716;DHT22;22699;51.034;3.730;2023-05-16T05:32:41;10.40;99.90
36716;DHT22;22699;51.034;3.730;2023-05-16T05:35:07;10.40;99.90
36716;DHT22;22699;51.034;3.730;2023-05-16T05:37:33;10.40;99.90
36716;DHT22;22699;51.034;3.730;2023-05-16T05:39:58;10.60;99.90
36716;DHT22;22699;51.034;3.730;2023-05-16T05:42:24;10.50;99.90
36716;DHT22;22699;51.034;3.730;2023-05-16T05:44:50;10.60;99.90
36716;DHT22;22699;51.034;3.730;2023-05-16T05:47:16;10.70;99.90
36716;DHT22;22699;51.034;3.730;2023-05-16T05:49:42;10.70;99.90
36716;DHT22;22699;51.034;3.730;2023-05-16T05:52:07;10.70;99.90
36716;DHT22;22699;51.034;3.730;2023-05-16T05:54:33;10.60;99.90
36716;DHT22;22699;51.034;3.730;2023-05-16T05:56:59;10.90;99.90
36716;DHT22;22699;51.034;3.730;2023-05-16T05:59:25;10.80;99.90
36716;DHT22;22699;51.034;3.730;2023-05-16T06:01:52;10.90;99.90
36716;DHT22;22699;51.034;3.730;2023-05-16T06:04:20;11.00;99.90
36716;DHT22;22699;51.034;3.730;2023-05-16T06:06:46;10.90;99.90
36716;DHT22;22699;51.034;3.730;2023-05-16T06:09:12;10.70;99.90
36716;DHT22;22699;51.034;3.730;2023-05-16T06:11:41;10.80;99.90
36716;DHT22;22699;51.034;3.730;2023-05-16T06:14:07;10.80;99.90
36716;DHT22;22699;51.034;3.730;2023-05-16T06:16:33;10.90;99.90
36716;DHT22;22699;51.034;3.730;2023-05-16T06:18:59;11.20;99.90
36716;DHT22;22699;51.034;3.730;2023-05-16T06:21:25;11.30;99.90
36716;DHT22;22699;51.034;3.730;2023-05-16T06:23:50;11.50;99.90
36716;DHT22;22699;51.034;3.730;2023-05-16T06:26:16;11.40;99.90
36716;DHT22;22699;51.034;3.730;2023-05-16T06:28:42;11.50;99.90
36716;DHT22;22699;51.034;3.730;2023-05-16T06:31:07;11.40;99.90
36716;DHT22;22699;51.034;3.730;2023-05-16T06:33:34;11.30;99.90
36716;DHT22;22699;51.034;3.730;2023-05-16T06:36:00;11.30;99.90
36716;DHT22;22699;51.034;3.730;2023-05-16T06:38:25;11.50;99.90
36716;DHT22;22699;51.034;3.730;2023-05-16T06:40:51;11.90;99.90
36716;DHT22;22699;51.034;3.730;2023-05-16T06:43:17;12.10;99.90
36716;DHT22;22699;51.034;3.730;2023-05-16T06:45:44;12.30;99.90
36716;DHT22;22699;51.034;3.730;2023-05-16T06:48:12;12.50;99.90
36716;DHT22;22699;51.034;3.730;2023-05-16T06:50:37;12.70;99.90
36716;DHT22;22699;51.034;3.730;2023-05-16T06:53:04;12.80;99.90
36716;DHT22;22699;51.034;3.730;2023-05-16T06:55:32;12.60;99.90
36716;DHT22;22699;51.034;3.730;2023-05-16T06:57:58;12.40;99.90
36716;DHT22;22699;51.034;3.730;2023-05-16T07:00:23;12.50;99.90
36716;DHT22;22699;51.034;3.730;2023-05-16T07:02:49;12.40;99.90
36716;DHT22;22699;51.034;3.730;2023-05-16T07:05:16;12.40;99.90
36716;DHT22;22699;51.034;3.730;2023-05-16T07:07:42;12.40;99.90
36716;DHT22;22699;51.034;3.730;2023-05-16T07:10:08;12.50;99.90
36716;DHT22;22699;51.034;3.730;2023-05-16T07:12:35;12.50;99.90
36716;DHT22;22699;51.034;3.730;2023-05-16T07:15:03;12.50;99.90
36716;DHT22;22699;51.034;3.730;2023-05-16T07:17:29;12.80;99.90
36716;DHT22;22699;51.034;3.730;2023-05-16T07:19:56;12.90;99.90
36716;DHT22;22699;51.034;3.730;2023-05-16T07:22:23;13.00;99.90
36716;DHT22;22699;51.034;3.730;2023-05-16T07:24:48;14.10;99.90
36716;DHT22;22699;51.034;3.730;2023-05-16T07:27:14;16.20;96.90
36716;DHT22;22699;51.034;3.730;2023-05-16T07:29:40;18.50;93.20
36716;DHT22;22699;51.034;3.730;2023-05-16T07:32:06;20.90;88.00
36716;DHT22;22699;51.034;3.730;2023-05-16T07:34:32;22.70;76.70
36716;DHT22;22699;51.034;3.730;2023-05-16T07:36:58;24.70;69.70
36716;DHT22;22699;51.034;3.730;2023-05-16T07:39:29;25.00;64.10
36716;DHT22;22699;51.034;3.730;2023-05-16T07:41:57;26.60;62.00
36716;DHT22;22699;51.034;3.730;2023-05-16T07:44:55;25.20;58.80
36716;DHT22;22699;51.034;3.730;2023-05-16T07:47:34;22.40;65.40
36716;DHT22;22699;51.034;3.730;2023-05-16T07:50:02;22.00;64.40
36716;DHT22;22699;51.034;3.730;2023-05-16T07:52:29;20.90;66.70
36716;DHT22;22699;51.034;3.730;2023-05-16T07:54:55;22.10;64.70
36716;DHT22;22699;51.034;3.730;2023-05-16T07:57:21;22.20;64.10
36716;DHT22;22699;51.034;3.730;2023-05-16T07:59:49;23.20;62.70
36716;DHT22;22699;51.034;3.730;2023-05-16T08:02:20;25.40;59.30
36716;DHT22;22699;51.034;3.730;2023-05-16T08:04:47;25.50;57.30
36716;DHT22;22699;51.034;3.730;2023-05-16T08:07:16;25.90;55.70
36716;DHT22;22699;51.034;3.730;2023-05-16T08:09:47;28.70;53.40
36716;DHT22;22699;51.034;3.730;2023-05-16T08:12:15;30.20;50.20
36716;DHT22;22699;51.034;3.730;2023-05-16T08:17:53;30.60;47.10
36716;DHT22;22699;51.034;3.730;2023-05-16T08:20:35;29.40;46.90
36716;DHT22;22699;51.034;3.730;2023-05-16T08:23:07;30.10;46.90
36716;DHT22;22699;51.034;3.730;2023-05-16T08:25:36;30.00;46.00
36716;DHT22;22699;51.034;3.730;2023-05-16T08:28:14;28.20;47.70
36716;DHT22;22699;51.034;3.730;2023-05-16T08:30:52;25.40;50.30
36716;DHT22;22699;51.034;3.730;2023-05-16T08:33:34;23.40;53.20
36716;DHT22;22699;51.034;3.730;2023-05-16T08:38:58;21.90;56.30
36716;DHT22;22699;51.034;3.730;2023-05-16T08:41:51;22.80;55.60
36716;DHT22;22699;51.034;3.730;2023-05-16T08:44:20;25.20;51.30
36716;DHT22;22699;51.034;3.730;2023-05-16T08:46:53;27.20;49.70
36716;DHT22;22699;51.034;3.730;2023-05-16T08:49:28;27.70;47.30
36716;DHT22;22699;51.034;3.730;2023-05-16T08:51:58;27.40;48.50
36716;DHT22;22699;51.034;3.730;2023-05-16T08:54:34;29.00;47.00
36716;DHT22;22699;51.034;3.730;2023-05-16T08:57:03;30.70;45.60
36716;DHT22;22699;51.034;3.730;2023-05-16T08:59:42;34.30;43.30
36716;DHT22;22699;51.034;3.730;2023-05-16T09:02:11;33.70;41.80
36716;DHT22;22699;51.034;3.730;2023-05-16T09:04:39;32.60;42.50
36716;DHT22;22699;51.034;3.730;2023-05-16T09:15:10;33.20;40.00
36716;DHT22;22699;51.034;3.730;2023-05-16T09:17:55;28.70;43.90
36716;DHT22;22699;51.034;3.730;2023-05-16T09:20:42;28.00;46.00
36716;DHT22;22699;51.034;3.730;2023-05-16T09:23:10;29.00;45.10
36716;DHT22;22699;51.034;3.730;2023-05-16T09:25:36;27.90;45.30
36716;DHT22;22699;51.034;3.730;2023-05-16T09:28:02;26.00;48.20
36716;DHT22;22699;51.034;3.730;2023-05-16T09:30:33;26.30;47.70
36716;DHT22;22699;51.034;3.730;2023-05-16T09:33:01;24.80;49.30
36716;DHT22;22699;51.034;3.730;2023-05-16T09:35:28;23.40;51.00
36716;DHT22;22699;51.034;3.730;2023-05-16T09:37:54;25.80;49.20
36716;DHT22;22699;51.034;3.730;2023-05-16T09:40:26;29.00;43.90
36716;DHT22;22699;51.034;3.730;2023-05-16T09:43:04;29.20;42.10
36716;DHT22;22699;51.034;3.730;2023-05-16T09:45:31;31.30;41.90
36716;DHT22;22699;51.034;3.730;2023-05-16T09:50:35;31.60;39.20
36716;DHT22;22699;51.034;3.730;2023-05-16T09:53:02;32.00;39.60
36716;DHT22;22699;51.034;3.730;2023-05-16T09:55:31;32.10;39.20
36716;DHT22;22699;51.034;3.730;2023-05-16T09:57:57;30.20;40.20
36716;DHT22;22699;51.034;3.730;2023-05-16T10:00:33;28.40;42.80
36716;DHT22;22699;51.034;3.730;2023-05-16T10:03:09;28.60;43.80
36716;DHT22;22699;51.034;3.730;2023-05-16T10:05:36;27.60;45.00
36716;DHT22;22699;51.034;3.730;2023-05-16T10:08:02;26.90;46.20
36716;DHT22;22699;51.034;3.730;2023-05-16T10:10:32;25.70;47.00
36716;DHT22;22699;51.034;3.730;2023-05-16T10:13:00;24.00;49.60
36716;DHT22;22699;51.034;3.730;2023-05-16T10:15:29;21.80;52.70
36716;DHT22;22699;51.034;3.730;2023-05-16T10:17:55;20.70;54.00
36716;DHT22;22699;51.034;3.730;2023-05-16T10:20:27;19.80;54.30
36716;DHT22;22699;51.034;3.730;2023-05-16T10:22:59;18.80;56.80
36716;DHT22;22699;51.034;3.730;2023-05-16T10:25:44;18.50;58.00
36716;DHT22;22699;51.034;3.730;2023-05-16T10:28:22;18.30;60.10
36716;DHT22;22699;51.034;3.730;2023-05-16T10:31:05;18.30;61.10
36716;DHT22;22699;51.034;3.730;2023-05-16T10:33:34;18.20;61.50
36716;DHT22;22699;51.034;3.730;2023-05-16T10:36:03;18.30;60.10
36716;DHT22;22699;51.034;3.730;2023-05-16T10:38:30;18.20;58.40
36716;DHT22;22699;51.034;3.730;2023-05-16T10:40:57;18.00;58.50
36716;DHT22;22699;51.034;3.730;2023-05-16T10:43:27;17.80;59.20
36716;DHT22;22699;51.034;3.730;2023-05-16T10:45:56;17.70;59.80
36716;DHT22;22699;51.034;3.730;2023-05-16T10:48:41;17.50;62.40
36716;DHT22;22699;51.034;3.730;2023-05-16T10:53:46;17.50;61.90
36716;DHT22;22699;51.034;3.730;2023-05-16T10:56:25;17.50;61.80
36716;DHT22;22699;51.034;3.730;2023-05-16T10:58:54;17.80;60.70
36716;DHT22;22699;51.034;3.730;2023-05-16T11:01:39;18.10;61.70
36716;DHT22;22699;51.034;3.730;2023-05-16T11:04:09;18.20;61.50
36716;DHT22;22699;51.034;3.730;2023-05-16T11:06:45;17.80;62.40
36716;DHT22;22699;51.034;3.730;2023-05-16T11:17:13;18.20;60.50
36716;DHT22;22699;51.034;3.730;2023-05-16T11:19:55;17.90;61.70
36716;DHT22;22699;51.034;3.730;2023-05-16T11:22:24;17.80;61.30
36716;DHT22;22699;51.034;3.730;2023-05-16T11:32:36;18.00;61.70
36716;DHT22;22699;51.034;3.730;2023-05-16T11:35:07;17.50;63.10
36716;DHT22;22699;51.034;3.730;2023-05-16T11:37:33;17.30;63.80
36716;DHT22;22699;51.034;3.730;2023-05-16T11:40:12;17.20;64.70
36716;DHT22;22699;51.034;3.730;2023-05-16T11:42:43;17.40;64.50
36716;DHT22;22699;51.034;3.730;2023-05-16T11:45:18;17.50;62.10
36716;DHT22;22699;51.034;3.730;2023-05-16T11:47:47;17.70;63.00
36716;DHT22;22699;51.034;3.730;2023-05-16T11:50:16;17.80;62.60
36716;DHT22;22699;51.034;3.730;2023-05-16T11:52:45;17.70;60.80
36716;DHT22;22699;51.034;3.730;2023-05-16T11:55:13;17.40;60.60
36716;DHT22;22699;51.034;3.730;2023-05-16T11:57:40;17.40;62.40
36716;DHT22;22699;51.034;3.730;2023-05-16T12:00:19;17.40;62.00
36716;DHT22;22699;51.034;3.730;2023-05-16T12:03:00;17.60;60.80
36716;DHT22;22699;51.034;3.730;2023-05-16T12:05:29;17.40;59.40
36716;DHT22;22699;51.034;3.730;2023-05-16T12:07:57;17.50;59.80
36716;DHT22;22699;51.034;3.730;2023-05-16T12:10:24;17.50;61.40
36716;DHT22;22699;51.034;3.730;2023-05-16T12:12:51;17.80;61.10
36716;DHT22;22699;51.034;3.730;2023-05-16T12:15:19;17.50;61.80
36716;DHT22;22699;51.034;3.730;2023-05-16T12:17:47;17.60;61.90
36716;DHT22;22699;51.034;3.730;2023-05-16T12:20:14;17.50;59.70
36716;DHT22;22699;51.034;3.730;2023-05-16T12:22:44;17.40;61.40
36716;DHT22;22699;51.034;3.730;2023-05-16T12:25:34;17.60;62.30
36716;DHT22;22699;51.034;3.730;2023-05-16T12:28:04;18.00;62.20
36716;DHT22;22699;51.034;3.730;2023-05-16T12:30:50;17.90;61.30
36716;DHT22;22699;51.034;3.730;2023-05-16T12:33:16;18.00;62.60
36716;DHT22;22699;51.034;3.730;2023-05-16T12:35:43;18.00;61.40
36716;DHT22;22699;51.034;3.730;2023-05-16T12:38:12;18.30;60.40
36716;DHT22;22699;51.034;3.730;2023-05-16T12:40:40;18.30;60.50
36716;DHT22;22699;51.034;3.730;2023-05-16T12:43:19;18.30;60.40
36716;DHT22;22699;51.034;3.730;2023-05-16T12:45:56;18.40;61.10
36716;DHT22;22699;51.034;3.730;2023-05-16T12:48:23;18.80;60.60
36716;DHT22;22699;51.034;3.730;2023-05-16T12:50:54;18.80;60.60
36716;DHT22;22699;51.034;3.730;2023-05-16T12:53:20;18.70;60.60
36716;DHT22;22699;51.034;3.730;2023-05-16T12:55:47;18.60;60.40
36716;DHT22;22699;51.034;3.730;2023-05-16T12:58:13;18.10;59.80
36716;DHT22;22699;51.034;3.730;2023-05-16T13:00:38;17.80;61.30
36716;DHT22;22699;51.034;3.730;2023-05-16T13:03:05;17.70;62.00
36716;DHT22;22699;51.034;3.730;2023-05-16T13:05:32;17.70;61.70
36716;DHT22;22699;51.034;3.730;2023-05-16T13:07:58;17.40;62.30
36716;DHT22;22699;51.034;3.730;2023-05-16T13:10:25;17.50;62.40
36716;DHT22;22699;51.034;3.730;2023-05-16T13:12:52;17.90;61.50
36716;DHT22;22699;51.034;3.730;2023-05-16T13:15:18;18.00;60.20
36716;DHT22;22699;51.034;3.730;2023-05-16T13:17:44;17.90;61.00
36716;DHT22;22699;51.034;3.730;2023-05-16T13:20:09;18.00;60.00
36716;DHT22;22699;51.034;3.730;2023-05-16T13:22:41;18.10;59.00
36716;DHT22;22699;51.034;3.730;2023-05-16T13:25:07;18.40;58.80
36716;DHT22;22699;51.034;3.730;2023-05-16T13:27:33;18.30;58.40
36716;DHT22;22699;51.034;3.730;2023-05-16T13:29:59;18.20;57.90
36716;DHT22;22699;51.034;3.730;2023-05-16T13:32:25;17.90;57.40
36716;DHT22;22699;51.034;3.730;2023-05-16T13:34:51;17.80;57.10
36716;DHT22;22699;51.034;3.730;2023-05-16T13:37:18;18.00;58.10
36716;DHT22;22699;51.034;3.730;2023-05-16T13:39:43;18.00;59.30
36716;DHT22;22699;51.034;3.730;2023-05-16T13:42:09;18.00;59.20
36716;DHT22;22699;51.034;3.730;2023-05-16T13:44:35;17.70;58.90
36716;DHT22;22699;51.034;3.730;2023-05-16T13:47:01;17.50;59.10
36716;DHT22;22699;51.034;3.730;2023-05-16T13:49:27;17.40;60.20
36716;DHT22;22699;51.034;3.730;2023-05-16T13:51:53;17.30;60.00
36716;DHT22;22699;51.034;3.730;2023-05-16T13:54:19;17.00;60.00
36716;DHT22;22699;51.034;3.730;2023-05-16T13:56:48;16.80;60.90
36716;DHT22;22699;51.034;3.730;2023-05-16T13:59:16;16.60;61.80
36716;DHT22;22699;51.034;3.730;2023-05-16T14:01:42;16.80;62.10
36716;DHT22;22699;51.034;3.730;2023-05-16T14:04:11;16.90;62.00
36716;DHT22;22699;51.034;3.730;2023-05-16T14:06:38;17.20;60.40
36716;DHT22;22699;51.034;3.730;2023-05-16T14:09:10;17.20;60.80
36716;DHT22;22699;51.034;3.730;2023-05-16T14:11:37;17.00;61.70
36716;DHT22;22699;51.034;3.730;2023-05-16T14:14:04;17.00;61.60
36716;DHT22;22699;51.034;3.730;2023-05-16T14:16:31;17.10;61.90
36716;DHT22;22699;51.034;3.730;2023-05-16T14:18:58;17.00;62.10
36716;DHT22;22699;51.034;3.730;2023-05-16T14:21:25;17.20;62.40
36716;DHT22;22699;51.034;3.730;2023-05-16T14:23:56;17.40;62.10
36716;DHT22;22699;51.034;3.730;2023-05-16T14:26:25;17.60;60.10
36716;DHT22;22699;51.034;3.730;2023-05-16T14:28:52;17.70;59.40
36716;DHT22;22699;51.034;3.730;2023-05-16T14:31:21;17.70;59.00
36716;DHT22;22699;51.034;3.730;2023-05-16T14:33:48;17.80;59.70
36716;DHT22;22699;51.034;3.730;2023-05-16T14:36:17;17.70;60.10
36716;DHT22;22699;51.034;3.730;2023-05-16T14:38:45;17.30;61.10
36716;DHT22;22699;51.034;3.730;2023-05-16T14:41:13;17.10;61.90
36716;DHT22;22699;51.034;3.730;2023-05-16T14:43:50;17.30;61.40
36716;DHT22;22699;51.034;3.730;2023-05-16T14:46:32;17.30;61.90
36716;DHT22;22699;51.034;3.730;2023-05-16T14:48:59;17.40;60.90
36716;DHT22;22699;51.034;3.730;2023-05-16T14:51:32;17.50;60.50
36716;DHT22;22699;51.034;3.730;2023-05-16T14:54:05;17.50;60.80
36716;DHT22;22699;51.034;3.730;2023-05-16T14:56:35;17.60;61.10
36716;DHT22;22699;51.034;3.730;2023-05-16T14:59:05;17.50;61.80
36716;DHT22;22699;51.034;3.730;2023-05-16T15:01:35;17.60;61.50
36716;DHT22;22699;51.034;3.730;2023-05-16T15:04:02;17.80;59.80
36716;DHT22;22699;51.034;3.730;2023-05-16T15:06:28;17.80;59.40
36716;DHT22;22699;51.034;3.730;2023-05-16T15:08:54;17.90;59.50
36716;DHT22;22699;51.034;3.730;2023-05-16T15:11:21;17.90;59.50
36716;DHT22;22699;51.034;3.730;2023-05-16T15:13:47;17.80;59.90
36716;DHT22;22699;51.034;3.730;2023-05-16T15:16:13;18.00;59.90
36716;DHT22;22699;51.034;3.730;2023-05-16T15:18:40;18.10;59.30
36716;DHT22;22699;51.034;3.730;2023-05-16T15:21:08;18.00;58.90
36716;DHT22;22699;51.034;3.730;2023-05-16T15:23:35;17.90;59.50
36716;DHT22;22699;51.034;3.730;2023-05-16T15:26:00;17.80;60.20
36716;DHT22;22699;51.034;3.730;2023-05-16T15:28:28;17.80;61.10
36716;DHT22;22699;51.034;3.730;2023-05-16T15:30:56;17.80;60.70
36716;DHT22;22699;51.034;3.730;2023-05-16T15:33:23;17.90;60.40
36716;DHT22;22699;51.034;3.730;2023-05-16T15:35:49;17.90;61.00
36716;DHT22;22699;51.034;3.730;2023-05-16T15:38:14;17.90;61.30
36716;DHT22;22699;51.034;3.730;2023-05-16T15:40:40;18.20;61.60
36716;DHT22;22699;51.034;3.730;2023-05-16T15:43:10;18.00;61.90
36716;DHT22;22699;51.034;3.730;2023-05-16T15:45:55;17.70;62.30
36716;DHT22;22699;51.034;3.730;2023-05-16T15:51:13;17.20;63.60
36716;DHT22;22699;51.034;3.730;2023-05-16T15:53:40;17.30;63.50
36716;DHT22;22699;51.034;3.730;2023-05-16T15:56:07;17.40;63.90
36716;DHT22;22699;51.034;3.730;2023-05-16T15:58:33;17.70;62.60
36716;DHT22;22699;51.034;3.730;2023-05-16T16:00:58;17.80;62.50
36716;DHT22;22699;51.034;3.730;2023-05-16T16:03:24;17.80;62.40
36716;DHT22;22699;51.034;3.730;2023-05-16T16:05:51;17.50;63.10
36716;DHT22;22699;51.034;3.730;2023-05-16T16:08:17;17.40;63.40
36716;DHT22;22699;51.034;3.730;2023-05-16T16:10:43;17.50;63.60
36716;DHT22;22699;51.034;3.730;2023-05-16T16:13:09;17.30;63.60
36716;DHT22;22699;51.034;3.730;2023-05-16T16:15:35;17.30;64.30
36716;DHT22;22699;51.034;3.730;2023-05-16T16:18:02;17.40;64.20
36716;DHT22;22699;51.034;3.730;2023-05-16T16:20:27;17.50;64.00
36716;DHT22;22699;51.034;3.730;2023-05-16T16:22:54;17.60;64.00
36716;DHT22;22699;51.034;3.730;2023-05-16T16:25:20;17.70;63.40
36716;DHT22;22699;51.034;3.730;2023-05-16T16:27:46;17.80;63.50
36716;DHT22;22699;51.034;3.730;2023-05-16T16:30:13;17.60;63.50
36716;DHT22;22699;51.034;3.730;2023-05-16T16:32:46;17.40;64.30
36716;DHT22;22699;51.034;3.730;2023-05-16T16:35:13;17.30;64.50